Time;durP1;ratioP1;P1;durP2;ratioP2;P2;SDS_P1;SDS_P2;PMS_P1;PMS_P2;Temp;Humidity;BMP_temperature;BMP_pressure;BME280_temperature;BME280_humidity;BME280_pressure;Samples;Min_cycle;Max_cycle;Signal;HPM_P1;HPM_P2
2022/05/29 00:00:57;;;;;;;5.55;1.30;;;10.10;77.20;;;;;;4931373;29;20096;-76
2022/05/29 00:03:25;;;;;;;2.67;1.30;;;10.10;77.40;;;;;;4943483;29;20055;-77
2022/05/29 00:05:53;;;;;;;3.90;1.35;;;10.10;77.50;;;;;;4950915;29;20066;-76
2022/05/29 00:08:32;;;;;;;4.70;1.50;;;10.10;77.60;;;;;;4942097;29;20163;-76
2022/05/29 00:11:00;;;;;;;4.75;1.23;;;10.10;77.80;;;;;;4928077;29;20039;-77
2022/05/29 00:13:28;;;;;;;4.60;1.20;;;10.10;77.80;;;;;;4933357;29;20087;-77
2022/05/29 00:15:56;;;;;;;3.20;1.50;;;10.10;77.90;;;;;;4942497;29;20051;-77
2022/05/29 00:18:25;;;;;;;5.70;1.67;;;10.10;78.00;;;;;;4945690;29;20071;-76
2022/05/29 00:20:56;;;;;;;3.15;1.20;;;10.10;78.10;;;;;;4919607;29;20063;-76
2022/05/29 00:23:26;;;;;;;2.85;1.40;;;10.00;78.20;;;;;;4936926;29;20040;-77
2022/05/29 00:25:54;;;;;;;5.25;1.92;;;10.10;78.40;;;;;;4941095;29;20051;-77
2022/05/29 00:28:22;;;;;;;3.38;1.40;;;10.10;78.40;;;;;;4930272;29;20048;-77
2022/05/29 00:30:50;;;;;;;5.20;1.63;;;10.10;78.50;;;;;;4923953;29;20040;-77
2022/05/29 00:33:18;;;;;;;3.30;1.30;;;10.10;78.70;;;;;;4938713;29;20067;-77
2022/05/29 00:35:45;;;;;;;6.90;1.63;;;10.10;78.80;;;;;;4903534;29;20048;-77
2022/05/29 00:38:13;;;;;;;2.80;1.33;;;10.00;78.90;;;;;;4935530;29;20055;-77
2022/05/29 00:40:50;;;;;;;2.42;1.45;;;10.00;78.90;;;;;;4919805;29;20405;-77
2022/05/29 00:43:18;;;;;;;8.45;1.50;;;10.00;79.00;;;;;;4906909;29;20067;-77
2022/05/29 00:45:51;;;;;;;4.00;1.50;;;9.90;78.90;;;;;;4931126;29;20546;-77
2022/05/29 00:48:20;;;;;;;7.13;1.92;;;9.90;79.00;;;;;;4924616;29;20092;-77
2022/05/29 00:50:51;;;;;;;2.92;1.60;;;9.90;79.00;;;;;;4940943;29;20043;-77
2022/05/29 00:53:20;;;;;;;4.70;1.60;;;9.90;79.10;;;;;;4941714;29;20056;-77
2022/05/29 00:55:55;;;;;;;4.90;1.90;;;9.90;79.20;;;;;;4945118;29;20043;-77
2022/05/29 00:58:24;;;;;;;3.80;1.73;;;9.90;79.30;;;;;;4929095;29;20157;-78
2022/05/29 01:00:55;;;;;;;3.50;1.77;;;9.80;79.30;;;;;;4945693;29;20074;-76
2022/05/29 01:03:23;;;;;;;7.07;1.50;;;9.80;79.50;;;;;;4948835;29;20051;-77
2022/05/29 01:05:51;;;;;;;5.18;1.65;;;9.90;79.50;;;;;;4946816;29;20527;-77
2022/05/29 01:08:27;;;;;;;4.15;1.45;;;9.90;79.50;;;;;;4935687;29;20056;-76
2022/05/29 01:11:11;;;;;;;2.22;1.40;;;9.90;79.50;;;;;;4938422;29;20154;-76
2022/05/29 01:14:38;;;;;;;3.17;1.55;;;9.90;79.50;;;;;;4946139;29;20063;-78
2022/05/29 01:17:47;;;;;;;3.88;1.77;;;10.00;79.60;;;;;;4857170;29;20049;-77
2022/05/29 01:20:29;;;;;;;2.97;1.50;;;10.00;79.40;;;;;;4877206;29;20057;-77
2022/05/29 01:23:15;;;;;;;5.03;1.13;;;10.00;79.30;;;;;;4862341;29;20213;-77
2022/05/29 01:25:51;;;;;;;3.42;1.40;;;10.10;79.30;;;;;;4868855;29;20232;-77
2022/05/29 01:28:32;;;;;;;2.92;1.55;;;10.10;79.20;;;;;;4876737;29;20060;-77
2022/05/29 01:31:29;;;;;;;3.92;1.10;;;10.20;79.10;;;;;;4876975;29;20151;-77
2022/05/29 01:34:12;;;;;;;2.80;1.10;;;10.20;79.00;;;;;;4873832;29;20060;-77
2022/05/29 01:37:12;;;;;;;1.77;0.80;;;10.20;78.90;;;;;;4871558;29;20415;-77
2022/05/29 01:39:51;;;;;;;1.23;0.90;;;10.20;78.60;;;;;;4848691;29;20546;-77
2022/05/29 01:42:41;;;;;;;1.83;0.85;;;10.20;78.30;;;;;;4863074;29;20057;-77
2022/05/29 01:45:32;;;;;;;3.85;0.93;;;10.20;78.10;;;;;;4876399;29;20053;-77
2022/05/29 01:48:06;;;;;;;2.13;0.88;;;10.20;77.80;;;;;;4900893;29;20066;-77
2022/05/29 01:50:50;;;;;;;7.38;1.10;;;10.20;77.50;;;;;;4915883;29;20052;-78
2022/05/29 01:53:24;;;;;;;6.22;1.33;;;10.10;77.30;;;;;;4948239;29;20051;-77
2022/05/29 01:55:56;;;;;;;1.50;0.75;;;10.10;77.00;;;;;;4930475;29;20058;-78
2022/05/29 01:58:42;;;;;;;5.60;1.00;;;10.10;76.70;;;;;;4939742;29;20051;-77
2022/05/29 02:01:12;;;;;;;4.20;0.98;;;10.10;76.50;;;;;;4921327;29;20043;-78
2022/05/29 02:03:46;;;;;;;6.03;1.17;;;10.00;76.20;;;;;;4943174;29;20062;-77
2022/05/29 02:06:23;;;;;;;2.92;1.08;;;10.00;75.90;;;;;;4931266;29;20054;-77
2022/05/29 02:09:01;;;;;;;2.38;0.93;;;9.90;75.70;;;;;;4937653;29;20071;-78
2022/05/29 02:11:31;;;;;;;2.72;0.98;;;9.90;75.60;;;;;;4945663;29;20528;-77
2022/05/29 02:14:06;;;;;;;4.57;1.20;;;9.90;75.50;;;;;;4934922;29;20058;-77
2022/05/29 02:16:43;;;;;;;4.85;1.20;;;9.90;75.40;;;;;;4950635;29;20051;-77
2022/05/29 02:19:28;;;;;;;2.50;1.10;;;9.90;75.40;;;;;;4934566;29;20078;-78
2022/05/29 02:22:01;;;;;;;3.70;1.20;;;9.90;75.40;;;;;;4935247;29;20051;-78
2022/05/29 02:24:39;;;;;;;3.28;1.55;;;9.80;75.30;;;;;;4943302;29;20051;-78
2022/05/29 02:27:15;;;;;;;7.85;1.38;;;9.80;75.20;;;;;;4930867;29;20047;-77
2022/05/29 02:29:43;;;;;;;1.30;1.02;;;9.80;75.10;;;;;;4944251;29;20516;-77
2022/05/29 02:32:24;;;;;;;2.50;1.10;;;9.80;75.00;;;;;;4947881;29;20501;-77
2022/05/29 02:35:14;;;;;;;7.93;1.33;;;9.80;74.90;;;;;;4935446;29;20071;-77
2022/05/29 02:37:45;;;;;;;6.97;1.60;;;9.80;74.70;;;;;;4924422;29;20048;-77
2022/05/29 02:40:30;;;;;;;3.30;1.17;;;9.80;74.70;;;;;;4938707;29;20071;-77
2022/05/29 02:43:27;;;;;;;5.88;1.27;;;9.70;74.60;;;;;;4919660;29;20048;-77
2022/05/29 02:46:08;;;;;;;2.70;1.13;;;9.70;74.60;;;;;;4938397;29;20397;-78
2022/05/29 02:48:40;;;;;;;6.75;1.45;;;9.70;74.60;;;;;;4924534;29;20047;-77
2022/05/29 02:51:40;;;;;;;2.50;0.90;;;9.70;74.60;;;;;;4929197;29;20201;-77
2022/05/29 02:54:12;;;;;;;7.18;1.40;;;9.70;74.50;;;;;;4937864;29;20064;-77
2022/05/29 02:56:40;;;;;;;2.15;1.10;;;9.70;74.40;;;;;;4949794;28;20375;-77
2022/05/29 02:59:08;;;;;;;5.07;1.30;;;9.70;74.50;;;;;;4939270;29;20062;-77
2022/05/29 03:02:02;;;;;;;5.50;1.40;;;9.70;74.60;;;;;;4928154;29;20035;-77
2022/05/29 03:04:39;;;;;;;6.55;1.25;;;9.70;74.60;;;;;;4934225;29;20059;-77
2022/05/29 03:07:44;;;;;;;1.90;0.98;;;9.70;74.60;;;;;;4919683;29;20055;-77
2022/05/29 03:10:18;;;;;;;2.83;1.00;;;9.80;74.40;;;;;;4955878;28;20054;-77
2022/05/29 03:13:22;;;;;;;4.00;1.52;;;9.80;74.30;;;;;;4938916;29;20052;-78
2022/05/29 03:16:10;;;;;;;4.57;1.00;;;9.70;74.30;;;;;;4929399;29;20047;-77
2022/05/29 03:18:56;;;;;;;1.98;1.17;;;9.70;74.30;;;;;;4946106;29;20063;-77
2022/05/29 03:21:42;;;;;;;3.33;1.23;;;9.70;74.30;;;;;;4934741;29;20460;-77
2022/05/29 03:24:30;;;;;;;2.63;1.33;;;9.80;74.30;;;;;;4927342;29;20051;-77
2022/05/29 03:27:07;;;;;;;3.47;1.17;;;9.70;74.30;;;;;;4934775;29;20059;-77
2022/05/29 03:30:03;;;;;;;4.07;1.20;;;9.70;74.40;;;;;;4943815;29;20397;-77
2022/05/29 03:32:33;;;;;;;3.00;1.42;;;9.70;74.50;;;;;;4939243;29;20051;-77
2022/05/29 03:35:17;;;;;;;5.32;1.02;;;9.70;74.50;;;;;;4922136;29;20044;-77
2022/05/29 03:37:45;;;;;;;5.40;1.60;;;9.70;74.70;;;;;;4945464;29;20493;-77
2022/05/29 03:40:13;;;;;;;3.58;1.08;;;9.60;74.70;;;;;;4923350;29;20409;-78
2022/05/29 03:42:41;;;;;;;1.70;1.02;;;9.60;74.70;;;;;;4943061;29;20417;-78
2022/05/29 03:45:09;;;;;;;4.47;1.10;;;9.60;74.70;;;;;;4945566;29;20048;-78
2022/05/29 03:47:38;;;;;;;7.03;1.40;;;9.60;74.70;;;;;;4929133;29;20059;-78
2022/05/29 03:50:09;;;;;;;5.30;1.23;;;9.60;74.80;;;;;;4944170;29;20047;-78
2022/05/29 03:52:36;;;;;;;2.15;0.85;;;9.60;74.80;;;;;;4946202;29;20043;-77
2022/05/29 03:55:05;;;;;;;2.47;0.98;;;9.50;74.80;;;;;;4941009;29;20051;-78
2022/05/29 03:57:33;;;;;;;9.88;1.40;;;9.50;74.80;;;;;;4944457;29;20066;-78
2022/05/29 04:00:01;;;;;;;4.43;1.20;;;9.40;74.80;;;;;;4927263;29;20405;-78
2022/05/29 04:02:41;;;;;;;2.25;1.20;;;9.40;74.90;;;;;;4942527;29;20040;-77
2022/05/29 04:05:11;;;;;;;4.85;1.30;;;9.40;74.90;;;;;;4945917;29;20059;-78
2022/05/29 04:13:12;;;;;;;3.75;1.10;;;9.40;75.00;;;;;;4930390;29;20044;-78
2022/05/29 04:15:45;;;;;;;4.75;1.30;;;9.40;75.10;;;;;;4945473;29;20452;-78
2022/05/29 04:18:18;;;;;;;5.72;1.40;;;9.40;75.10;;;;;;4941546;29;20438;-78
2022/05/29 04:20:45;;;;;;;5.57;1.00;;;9.30;75.20;;;;;;4952681;29;20062;-78
2022/05/29 04:23:13;;;;;;;7.38;1.30;;;9.30;75.20;;;;;;4936399;29;20047;-78
2022/05/29 04:25:43;;;;;;;2.70;0.98;;;9.30;75.30;;;;;;4926837;29;20048;-78
2022/05/29 04:28:11;;;;;;;4.40;1.20;;;9.30;75.30;;;;;;4943045;29;20047;-78
2022/05/29 04:30:39;;;;;;;4.65;1.30;;;9.20;75.40;;;;;;4952626;29;20085;-77
2022/05/29 04:33:07;;;;;;;3.92;1.20;;;9.20;75.50;;;;;;4933022;29;20048;-77
2022/05/29 04:35:47;;;;;;;7.30;1.55;;;9.10;75.60;;;;;;4931650;29;20047;-78
2022/05/29 04:38:16;;;;;;;4.28;1.20;;;9.10;75.80;;;;;;4925348;29;20062;-77
2022/05/29 04:40:44;;;;;;;4.30;1.48;;;9.10;75.80;;;;;;4952153;29;20050;-78
2022/05/29 04:43:13;;;;;;;3.75;1.30;;;9.20;75.80;;;;;;4936613;29;20609;-77
2022/05/29 04:45:43;;;;;;;2.63;1.30;;;9.30;75.90;;;;;;4944886;29;20043;-78
2022/05/29 04:48:13;;;;;;;3.72;1.27;;;9.30;75.90;;;;;;4949723;29;20054;-77
2022/05/29 04:50:40;;;;;;;2.92;1.30;;;9.30;75.90;;;;;;4932865;29;20044;-77
2022/05/29 04:53:09;;;;;;;6.80;1.30;;;9.30;75.80;;;;;;4936779;29;20062;-78
2022/05/29 04:55:39;;;;;;;6.22;1.30;;;9.30;75.80;;;;;;4945432;28;20400;-78
2022/05/29 04:58:08;;;;;;;5.85;1.45;;;9.40;75.80;;;;;;4944014;29;20048;-78
2022/05/29 05:00:36;;;;;;;3.85;1.50;;;9.40;75.80;;;;;;4942502;29;20051;-77
2022/05/29 05:03:04;;;;;;;2.78;1.25;;;9.50;75.90;;;;;;4946612;29;20050;-77
2022/05/29 05:05:31;;;;;;;2.72;1.20;;;9.50;75.90;;;;;;4950934;29;20508;-78
2022/05/29 05:07:59;;;;;;;2.15;1.02;;;9.60;75.90;;;;;;4943771;29;20055;-78
2022/05/29 05:10:26;;;;;;;3.75;1.30;;;9.60;75.80;;;;;;4928332;29;20055;-77
2022/05/29 05:12:54;;;;;;;4.00;1.38;;;9.70;75.80;;;;;;4952119;29;20054;-77
2022/05/29 05:15:22;;;;;;;6.80;1.23;;;9.80;75.70;;;;;;4919170;29;20047;-78
2022/05/29 05:17:49;;;;;;;5.45;1.15;;;9.80;75.60;;;;;;4929745;29;20428;-77
2022/05/29 05:20:17;;;;;;;5.30;1.10;;;9.80;75.50;;;;;;4925930;29;20486;-77
2022/05/29 05:22:45;;;;;;;6.18;1.40;;;9.80;75.30;;;;;;4917427;29;20052;-77
2022/05/29 05:25:14;;;;;;;6.65;1.15;;;9.90;75.10;;;;;;4911568;29;20068;-76
2022/05/29 05:27:41;;;;;;;2.88;1.10;;;9.90;75.10;;;;;;4910749;29;20101;-76
2022/05/29 05:30:10;;;;;;;4.32;1.30;;;9.90;75.00;;;;;;4923533;29;20064;-76
2022/05/29 05:32:38;;;;;;;7.72;1.33;;;9.90;74.90;;;;;;4901643;29;20080;-76
2022/05/29 05:35:07;;;;;;;4.03;1.50;;;9.90;75.00;;;;;;4912235;29;20056;-76
2022/05/29 05:37:37;;;;;;;7.85;1.63;;;9.90;75.00;;;;;;4915010;29;20490;-76
2022/05/29 05:40:09;;;;;;;7.65;1.50;;;9.90;75.00;;;;;;4903296;29;20410;-76
2022/05/29 05:42:37;;;;;;;4.63;1.40;;;9.90;75.00;;;;;;4914368;29;20052;-76
2022/05/29 05:45:08;;;;;;;7.80;1.40;;;10.00;74.90;;;;;;4925054;29;20044;-76
2022/05/29 05:47:35;;;;;;;4.63;1.00;;;9.90;74.80;;;;;;4908367;29;20060;-76
2022/05/29 05:50:05;;;;;;;3.47;1.10;;;9.90;74.70;;;;;;4884435;29;20072;-76
2022/05/29 05:52:32;;;;;;;2.83;1.08;;;9.90;74.70;;;;;;4912859;29;20052;-77
2022/05/29 05:55:02;;;;;;;6.47;1.33;;;9.90;74.60;;;;;;4918176;29;20426;-77
2022/05/29 05:57:29;;;;;;;4.28;1.02;;;9.80;74.60;;;;;;4909015;29;20040;-77
2022/05/29 05:59:57;;;;;;;7.38;1.45;;;9.90;74.70;;;;;;4898996;29;20060;-76
2022/05/29 06:02:25;;;;;;;4.28;1.40;;;9.80;74.80;;;;;;4923943;29;20051;-76
2022/05/29 06:04:53;;;;;;;7.57;1.20;;;9.80;75.00;;;;;;4913965;29;20052;-76
2022/05/29 06:07:20;;;;;;;6.00;1.55;;;9.80;75.30;;;;;;4906798;29;20494;-77
2022/05/29 06:09:49;;;;;;;5.25;1.48;;;9.80;75.60;;;;;;4923795;29;20048;-76
2022/05/29 06:12:19;;;;;;;4.68;1.48;;;9.70;75.90;;;;;;4911393;29;20067;-76
2022/05/29 06:14:48;;;;;;;6.78;1.70;;;9.70;76.20;;;;;;4911920;29;20075;-77
2022/05/29 06:17:16;;;;;;;5.75;1.73;;;9.60;76.50;;;;;;4897983;29;20541;-76
2022/05/29 06:19:44;;;;;;;7.30;1.50;;;9.60;76.70;;;;;;4919379;29;20047;-76
2022/05/29 06:22:11;;;;;;;7.90;1.85;;;9.60;76.90;;;;;;4938154;29;20485;-76
2022/05/29 06:24:39;;;;;;;8.65;1.65;;;9.50;77.00;;;;;;4943557;29;20043;-76
2022/05/29 06:27:07;;;;;;;4.40;1.50;;;9.50;77.10;;;;;;4939822;29;20042;-76
2022/05/29 06:29:34;;;;;;;6.18;1.60;;;9.50;77.10;;;;;;4928596;29;20501;-76
2022/05/29 06:32:04;;;;;;;9.02;1.92;;;9.60;77.10;;;;;;4938173;29;20052;-76
2022/05/29 06:34:33;;;;;;;7.10;1.67;;;9.60;77.30;;;;;;4917806;29;20528;-76
2022/05/29 06:37:05;;;;;;;8.35;2.05;;;9.70;77.40;;;;;;4935619;29;20052;-76
2022/05/29 06:39:37;;;;;;;6.03;1.70;;;9.70;77.40;;;;;;4914356;29;20042;-76
2022/05/29 06:42:05;;;;;;;7.30;1.73;;;9.80;77.50;;;;;;4911916;29;20044;-77
2022/05/29 06:44:37;;;;;;;4.88;1.60;;;9.90;77.40;;;;;;4929222;29;20048;-76
2022/05/29 06:47:07;;;;;;;6.78;1.70;;;10.00;77.20;;;;;;4933410;29;20059;-77
2022/05/29 06:49:36;;;;;;;7.38;2.05;;;10.10;77.10;;;;;;4928155;29;20040;-77
2022/05/29 06:52:10;;;;;;;7.00;1.63;;;10.20;76.90;;;;;;4933780;29;20051;-79
2022/05/29 06:54:38;;;;;;;6.90;1.42;;;10.30;76.70;;;;;;4934014;29;20044;-79
2022/05/29 06:57:07;;;;;;;9.52;1.73;;;10.30;76.40;;;;;;4933239;29;20618;-78
2022/05/29 07:06:58;;;;;;;13.95;1.98;;;10.40;76.50;;;;;;4936640;29;20050;-77
2022/05/29 07:08:00;;;;;;;6.07;1.50;;;10.50;76.60;;;;;;4927671;29;20062;-78
2022/05/29 07:10:30;;;;;;;4.60;1.60;;;10.60;76.30;;;;;;4929330;29;20062;-78
2022/05/29 07:12:59;;;;;;;4.45;1.67;;;10.50;76.10;;;;;;4926333;29;20075;-78
2022/05/29 07:15:27;;;;;;;5.38;1.45;;;10.50;76.10;;;;;;4930146;29;20047;-77
2022/05/29 07:18:00;;;;;;;8.02;1.42;;;10.50;76.00;;;;;;4937104;29;20063;-78
2022/05/29 07:20:28;;;;;;;7.57;1.27;;;10.60;75.90;;;;;;4916649;29;20060;-77
2022/05/29 07:22:57;;;;;;;4.25;1.45;;;10.60;75.80;;;;;;4894884;29;20041;-78
2022/05/29 07:25:25;;;;;;;2.83;1.33;;;10.70;75.30;;;;;;4911528;29;20529;-78
2022/05/29 07:27:53;;;;;;;6.55;1.50;;;10.80;75.10;;;;;;4913050;29;20406;-79
2022/05/29 07:30:20;;;;;;;5.03;1.70;;;10.90;75.00;;;;;;4911017;29;20430;-80
2022/05/29 07:32:48;;;;;;;5.93;1.58;;;11.00;75.00;;;;;;4906920;29;20056;-78
2022/05/29 07:35:17;;;;;;;5.60;1.45;;;11.00;74.80;;;;;;4914030;29;20048;-78
2022/05/29 07:37:45;;;;;;;7.85;1.65;;;11.20;74.60;;;;;;4913136;29;20060;-78
2022/05/29 07:40:12;;;;;;;5.47;1.45;;;11.30;74.40;;;;;;4904889;29;20048;-79
2022/05/29 07:45:27;;;;;;;6.65;1.00;;;11.70;74.00;;;;;;4898540;29;20552;-79
2022/05/29 07:47:55;;;;;;;4.30;1.38;;;11.80;73.00;;;;;;4891786;29;20044;-79
2022/05/29 07:50:23;;;;;;;9.43;1.40;;;11.90;72.60;;;;;;4917422;29;20047;-79
2022/05/29 07:52:52;;;;;;;4.97;1.60;;;12.00;72.50;;;;;;4919250;29;20187;-79
2022/05/29 07:55:21;;;;;;;5.70;1.13;;;11.90;72.60;;;;;;4919015;29;20052;-78
2022/05/29 07:57:49;;;;;;;5.60;0.80;;;11.90;72.70;;;;;;4913206;29;20490;-79
2022/05/29 08:00:18;;;;;;;6.20;1.15;;;12.00;72.60;;;;;;4901976;29;20052;-78
2022/05/29 08:02:46;;;;;;;6.05;0.73;;;12.00;71.80;;;;;;4918553;29;20048;-79
2022/05/29 08:05:17;;;;;;;3.85;1.08;;;12.00;70.70;;;;;;4918633;29;20048;-78
2022/05/29 08:07:46;;;;;;;4.93;1.50;;;11.90;70.80;;;;;;4918585;29;20059;-78
2022/05/29 08:10:15;;;;;;;3.88;1.17;;;11.90;71.00;;;;;;4918326;29;20481;-78
2022/05/29 08:12:43;;;;;;;3.70;1.15;;;11.90;71.00;;;;;;4916293;29;20052;-78
2022/05/29 08:15:11;;;;;;;5.80;1.45;;;11.90;71.20;;;;;;4911216;29;20055;-78
2022/05/29 08:17:40;;;;;;;5.70;1.65;;;11.90;71.70;;;;;;4917329;29;20047;-78
2022/05/29 08:20:10;;;;;;;4.93;1.35;;;12.00;71.80;;;;;;4917642;29;20048;-78
2022/05/29 08:22:38;;;;;;;5.88;1.38;;;12.00;71.80;;;;;;4910197;29;20036;-78
2022/05/29 08:30:43;;;;;;;6.68;1.30;;;12.00;72.20;;;;;;4918540;29;20402;-78
2022/05/29 08:33:16;;;;;;;6.93;1.50;;;12.00;71.70;;;;;;4921151;29;20417;-78
2022/05/29 08:35:46;;;;;;;6.60;1.40;;;12.00;71.30;;;;;;4923329;29;20056;-78
2022/05/29 08:38:16;;;;;;;7.38;1.50;;;11.90;71.20;;;;;;4929370;29;20060;-78
2022/05/29 08:40:49;;;;;;;4.72;1.27;;;11.80;71.20;;;;;;4899913;29;20083;-78
2022/05/29 08:43:23;;;;;;;7.40;1.40;;;11.70;71.40;;;;;;4917029;29;20048;-78
2022/05/29 08:45:51;;;;;;;5.25;1.38;;;11.50;71.60;;;;;;4901069;29;20390;-78
2022/05/29 08:48:23;;;;;;;5.35;1.20;;;11.30;71.80;;;;;;4916643;29;20067;-77
2022/05/29 08:51:08;;;;;;;4.90;1.25;;;11.20;72.20;;;;;;4917540;29;20051;-78
2022/05/29 08:54:03;;;;;;;7.05;1.25;;;11.10;72.10;;;;;;4912783;29;20040;-78
2022/05/29 08:56:37;;;;;;;4.65;1.20;;;10.90;72.20;;;;;;4902377;29;20049;-78
2022/05/29 08:59:15;;;;;;;6.13;1.10;;;10.90;72.60;;;;;;4915356;29;20065;-78
2022/05/29 09:02:14;;;;;;;7.05;1.48;;;10.90;72.80;;;;;;4881712;29;20487;-74
2022/05/29 09:04:45;;;;;;;3.20;1.35;;;10.90;72.80;;;;;;4905901;29;20137;-78
2022/05/29 09:07:18;;;;;;;3.45;1.20;;;11.00;72.90;;;;;;4901112;29;20048;-77
2022/05/29 09:09:54;;;;;;;3.63;1.25;;;11.20;72.80;;;;;;4896078;29;20051;-73
2022/05/29 09:12:28;;;;;;;3.42;1.30;;;11.30;72.70;;;;;;4910501;29;20056;-69
2022/05/29 09:15:01;;;;;;;7.10;1.60;;;11.40;72.50;;;;;;4900193;29;20044;-70
2022/05/29 09:17:35;;;;;;;3.28;1.20;;;11.40;72.40;;;;;;4914411;29;20052;-69
2022/05/29 09:20:12;;;;;;;6.88;1.33;;;11.50;72.30;;;;;;4891754;29;20449;-71
2022/05/29 09:22:44;;;;;;;4.60;1.52;;;11.50;71.90;;;;;;4917302;29;20060;-70
2022/05/29 09:25:21;;;;;;;7.05;1.13;;;11.40;72.20;;;;;;4899049;29;20052;-70
2022/05/29 09:27:48;;;;;;;11.30;5.75;;;11.40;72.10;;;;;;4917257;29;20059;-70
2022/05/29 09:30:17;;;;;;;10.43;3.22;;;11.50;72.30;;;;;;4916525;29;20052;-70
2022/05/29 09:33:01;;;;;;;5.60;1.65;;;11.50;72.30;;;;;;4900569;29;20052;-70
2022/05/29 09:36:02;;;;;;;6.50;1.70;;;11.60;72.00;;;;;;4916946;29;20048;-69
2022/05/29 09:38:51;;;;;;;29.02;12.70;;;11.50;71.50;;;;;;4913677;29;20056;-70
2022/05/29 09:41:32;;;;;;;3.90;0.93;;;11.50;71.50;;;;;;4916663;29;20067;-71
2022/05/29 09:44:05;;;;;;;1.48;0.85;;;11.50;71.50;;;;;;4917075;29;20059;-70
2022/05/29 09:46:34;;;;;;;;;;;11.40;71.40;;;;;;4899101;29;20387;-70
2022/05/29 09:52:04;;;;;;;6.40;0.80;;;11.30;71.20;;;;;;4905888;29;20044;-70
2022/05/29 09:54:38;;;;;;;0.88;0.57;;;11.20;71.10;;;;;;4904418;29;20052;-70
2022/05/29 09:57:23;;;;;;;2.75;0.45;;;11.20;70.70;;;;;;4916868;29;20055;-70
2022/05/29 10:00:00;;;;;;;1.65;0.40;;;11.10;70.20;;;;;;4912169;29;20526;-70
2022/05/29 10:02:35;;;;;;;3.28;0.50;;;11.10;70.10;;;;;;4915639;29;20063;-70
2022/05/29 10:05:04;;;;;;;0.90;0.40;;;11.00;69.60;;;;;;4916255;29;20048;-70
2022/05/29 10:07:36;;;;;;;1.02;0.30;;;11.10;69.40;;;;;;4916197;29;20394;-70
2022/05/29 10:10:10;;;;;;;1.60;0.30;;;11.10;69.20;;;;;;4909774;29;20052;-71
2022/05/29 10:12:47;;;;;;;2.67;0.60;;;11.00;68.90;;;;;;4914394;29;20302;-70
2022/05/29 10:15:34;;;;;;;1.10;0.50;;;11.00;68.90;;;;;;4910910;29;20512;-70
2022/05/29 10:18:10;;;;;;;3.75;0.63;;;10.90;69.00;;;;;;4897920;29;20040;-70
2022/05/29 10:20:43;;;;;;;1.55;1.05;;;10.80;69.40;;;;;;4899090;29;20063;-71
2022/05/29 10:23:29;;;;;;;1.15;0.65;;;10.60;69.80;;;;;;4914313;29;20043;-71
2022/05/29 10:26:08;;;;;;;1.55;0.75;;;10.60;70.20;;;;;;4934297;29;20047;-71
2022/05/29 10:28:38;;;;;;;4.28;0.60;;;10.50;70.60;;;;;;4935074;29;20067;-70
2022/05/29 10:31:09;;;;;;;4.97;0.80;;;10.60;70.80;;;;;;4933852;29;20054;-71
2022/05/29 10:33:37;;;;;;;2.47;0.63;;;10.60;71.10;;;;;;4924977;29;20057;-71
2022/05/29 10:36:16;;;;;;;4.45;0.73;;;10.70;71.70;;;;;;4905618;29;20056;-70
2022/05/29 10:38:45;;;;;;;2.97;0.52;;;10.90;71.80;;;;;;4914949;29;20044;-70
2022/05/29 10:41:30;;;;;;;1.55;0.60;;;11.00;71.70;;;;;;4903802;29;20063;-70
2022/05/29 10:43:57;;;;;;;2.60;0.50;;;11.20;71.10;;;;;;4913310;29;20048;-70
2022/05/29 10:46:44;;;;;;;0.57;0.20;;;11.50;71.00;;;;;;4919034;29;20063;-71
2022/05/29 10:49:27;;;;;;;0.45;0.20;;;11.80;70.00;;;;;;4923071;29;20505;-70
2022/05/29 10:52:11;;;;;;;2.85;0.30;;;12.10;68.50;;;;;;4907879;29;20063;-70
2022/05/29 10:55:01;;;;;;;3.90;0.60;;;12.30;68.00;;;;;;4914693;29;20063;-70
2022/05/29 10:57:51;;;;;;;1.30;0.65;;;12.50;67.20;;;;;;4915771;29;20513;-71
2022/05/29 11:00:37;;;;;;;3.42;0.90;;;12.60;67.40;;;;;;4857167;29;20050;-71
2022/05/29 11:03:34;;;;;;;5.03;1.02;;;12.80;67.20;;;;;;4844370;29;20064;-70
2022/05/29 11:06:42;;;;;;;3.33;0.75;;;12.80;67.20;;;;;;4836809;29;20053;-77
2022/05/29 11:09:10;;;;;;;1.85;0.70;;;12.90;66.70;;;;;;4783770;30;20062;-77
2022/05/29 11:11:50;;;;;;;2.40;0.68;;;13.00;66.10;;;;;;4784055;30;20062;-77
2022/05/29 11:15:02;;;;;;;0.80;0.55;;;13.00;65.40;;;;;;4784357;30;20055;-77
2022/05/29 11:17:42;;;;;;;1.80;0.68;;;13.00;64.90;;;;;;4781708;30;20063;-77
2022/05/29 11:20:19;;;;;;;;;;;13.00;65.00;;;;;;4784496;30;20058;-78
2022/05/29 11:23:16;;;;;;;3.42;0.50;;;13.10;64.50;;;;;;4799613;29;19926;-77
2022/05/29 11:25:55;;;;;;;2.95;0.50;;;13.00;64.00;;;;;;4787691;30;20063;-77
2022/05/29 11:28:31;;;;;;;1.63;0.50;;;13.00;64.10;;;;;;4790921;29;20502;-77
2022/05/29 11:31:30;;;;;;;4.28;0.70;;;13.00;63.40;;;;;;4787614;30;20078;-77
2022/05/29 11:34:23;;;;;;;1.33;0.50;;;13.00;63.70;;;;;;4787964;30;20198;-78
2022/05/29 11:36:50;;;;;;;4.03;0.70;;;12.90;63.80;;;;;;4784062;30;20067;-77
2022/05/29 11:39:26;;;;;;;1.85;0.85;;;12.90;63.80;;;;;;4787080;30;20063;-77
2022/05/29 11:41:58;;;;;;;4.78;1.15;;;12.90;64.40;;;;;;4798116;29;20061;-77
2022/05/29 11:44:41;;;;;;;5.22;1.00;;;13.00;64.70;;;;;;4827210;29;20066;-77
2022/05/29 11:53:53;;;;;;;5.28;0.90;;;13.30;64.50;;;;;;4918787;29;20056;-78
2022/05/29 11:56:30;;;;;;;3.08;0.98;;;13.30;64.40;;;;;;4918194;29;20052;-77
2022/05/29 11:59:40;;;;;;;3.38;1.00;;;13.50;63.60;;;;;;4918954;29;20044;-78
2022/05/29 12:02:18;;;;;;;4.13;1.15;;;13.50;63.30;;;;;;4919741;29;20052;-77
2022/05/29 12:04:58;;;;;;;1.80;0.60;;;13.60;63.60;;;;;;4932954;29;20051;-77
2022/05/29 12:07:42;;;;;;;2.58;1.00;;;13.60;63.70;;;;;;4915277;29;20071;-77
2022/05/29 12:10:15;;;;;;;;;;;13.80;63.00;;;;;;4913348;29;20494;-78
2022/05/29 12:12:47;;;;;;;2.50;0.83;;;13.80;62.20;;;;;;4911104;29;20373;-77
2022/05/29 12:15:18;;;;;;;2.60;0.70;;;13.80;62.30;;;;;;4904081;29;20041;-77
2022/05/29 12:17:50;;;;;;;2.53;1.02;;;13.90;62.30;;;;;;4917337;29;20490;-78
2022/05/29 12:20:30;;;;;;;3.10;0.90;;;14.10;62.20;;;;;;4913775;29;20048;-77
2022/05/29 12:23:04;;;;;;;2.15;0.98;;;14.20;62.00;;;;;;4915315;29;20056;-77
2022/05/29 12:25:57;;;;;;;2.58;1.00;;;14.40;61.80;;;;;;4918412;29;20379;-77
2022/05/29 12:28:47;;;;;;;6.93;1.27;;;14.70;60.80;;;;;;4917870;29;20059;-77
2022/05/29 12:31:35;;;;;;;3.05;1.00;;;14.90;61.00;;;;;;4896234;29;20606;-77
2022/05/29 12:34:04;;;;;;;1.80;0.70;;;15.20;59.30;;;;;;4865950;29;20406;-78
2022/05/29 12:37:06;;;;;;;5.35;2.03;;;15.30;58.90;;;;;;4911378;29;20498;-76
2022/05/29 12:39:36;;;;;;;1.67;0.93;;;15.30;58.30;;;;;;4901094;29;20056;-78
2022/05/29 12:42:07;;;;;;;5.32;1.88;;;15.60;58.50;;;;;;4912978;29;20402;-76
2022/05/29 12:44:43;;;;;;;2.90;1.13;;;15.90;58.30;;;;;;4913297;29;20053;-76
2022/05/29 12:47:34;;;;;;;2.85;1.33;;;16.50;57.40;;;;;;4917724;29;20055;-77
2022/05/29 12:50:35;;;;;;;3.33;1.00;;;17.20;55.50;;;;;;4897130;29;20055;-77
2022/05/29 12:53:47;;;;;;;6.45;1.17;;;17.90;54.40;;;;;;4897976;29;20493;-77
2022/05/29 12:56:44;;;;;;;3.72;0.70;;;18.30;52.70;;;;;;4912525;29;20402;-76
2022/05/29 12:59:50;;;;;;;2.40;0.80;;;18.80;50.20;;;;;;4917866;29;20080;-76
2022/05/29 13:02:42;;;;;;;3.70;1.33;;;19.00;49.30;;;;;;4913812;29;20052;-76
2022/05/29 13:05:51;;;;;;;3.28;1.17;;;19.60;48.50;;;;;;4916945;29;20052;-76
2022/05/29 13:09:10;;;;;;;3.08;1.10;;;19.80;46.70;;;;;;4898426;29;20395;-76
2022/05/29 13:11:46;;;;;;;2.25;0.93;;;19.50;47.70;;;;;;4875728;29;20079;-76
2022/05/29 13:14:17;;;;;;;1.83;0.80;;;19.60;48.10;;;;;;4926924;29;20048;-76
2022/05/29 13:16:46;;;;;;;2.80;1.10;;;20.10;47.90;;;;;;4912578;29;20495;-76
2022/05/29 13:19:21;;;;;;;1.08;0.73;;;20.90;46.80;;;;;;4877425;29;20059;-76
2022/05/29 13:22:02;;;;;;;1.98;0.70;;;21.50;45.00;;;;;;4914416;29;20548;-76
2022/05/29 13:24:33;;;;;;;1.67;0.50;;;22.10;42.10;;;;;;4910066;29;20048;-77
2022/05/29 13:27:13;;;;;;;1.95;0.60;;;22.50;41.10;;;;;;4903372;29;20040;-75
2022/05/29 13:29:41;;;;;;;0.95;0.43;;;22.30;39.40;;;;;;4922868;29;20052;-76
2022/05/29 13:32:15;;;;;;;1.17;0.50;;;21.80;38.20;;;;;;4894390;29;20057;-76
2022/05/29 13:34:43;;;;;;;1.52;0.65;;;21.10;38.40;;;;;;4903174;29;20091;-75
2022/05/29 13:37:37;;;;;;;2.67;0.57;;;20.50;39.30;;;;;;4898171;29;20044;-76
2022/05/29 13:40:10;;;;;;;1.10;0.50;;;20.00;39.40;;;;;;4923471;29;20052;-75
2022/05/29 13:42:54;;;;;;;1.52;0.80;;;19.60;39.80;;;;;;4928035;29;20051;-75
2022/05/29 13:45:25;;;;;;;0.70;0.50;;;19.30;40.30;;;;;;4923567;29;20040;-75
2022/05/29 13:48:05;;;;;;;1.30;0.60;;;19.00;41.10;;;;;;4917988;29;20058;-75
2022/05/29 13:51:01;;;;;;;1.00;0.60;;;18.80;41.70;;;;;;4916618;29;20450;-75
2022/05/29 13:53:50;;;;;;;1.95;0.80;;;18.60;41.70;;;;;;4911740;29;20052;-75
2022/05/29 13:56:20;;;;;;;0.88;0.45;;;18.20;42.30;;;;;;4919272;29;20040;-74
2022/05/29 14:04:53;;;;;;;3.40;1.00;;;18.80;42.50;;;;;;4911942;29;20505;-75
2022/05/29 14:07:32;;;;;;;4.28;0.80;;;18.50;42.50;;;;;;4912549;29;20536;-75
2022/05/29 14:10:03;;;;;;;2.05;0.90;;;18.10;43.30;;;;;;4914687;29;20048;-75